Aviation Digital Data Service (ADDS)

Output produced by METARs form (0059 UTC 19 November 2018)
found at http://www.aviationweather.gov/metar/data/
 
METAR text: RJDT 190000Z 35007KT 310V040 9999 FEW030 SCT130 BKN150 12/04 Q1020
Conditions at: RJDT (TSUSHIMA AIRPORT, JP) observed 0000 UTC 19 November 2018
Temperature: 12.0°C (54°F)
Dewpoint: 4.0°C (39°F) [RH = 58%]
Pressure (altimeter): 30.12 inches Hg (1020.0 mb)
Winds: from the N (350 degrees) at 8 MPH (7 knots; 3.6 m/s)
Visibility: 6 or more miles (10+ km)
Ceiling: 15000 feet AGL
Clouds: few clouds at 3000 feet AGL
scattered clouds at 13000 feet AGL
broken clouds at 15000 feet AGL
Weather: no significant weather observed at this time